createdAt,value
2018-05-31T00:00:33.418Z,92.10
2018-05-31T00:03:01.186Z,92.10
2018-05-31T00:05:28.868Z,92.40
2018-05-31T00:07:56.593Z,92.70
2018-05-31T00:10:24.273Z,92.70
2018-05-31T00:12:52.064Z,92.70
2018-05-31T00:15:19.777Z,92.50
2018-05-31T00:17:47.498Z,92.40
2018-05-31T00:20:15.274Z,92.60
2018-05-31T00:22:43.042Z,92.80
2018-05-31T00:25:10.727Z,92.90
2018-05-31T00:27:38.444Z,92.90
2018-05-31T00:30:06.140Z,93.10
2018-05-31T00:32:33.900Z,93.20
2018-05-31T00:35:01.607Z,93.40
2018-05-31T00:37:30.157Z,93.50
2018-05-31T00:39:57.872Z,93.50
2018-05-31T00:42:26.410Z,93.60
2018-05-31T00:44:54.184Z,93.60
2018-05-31T00:47:21.909Z,93.70
2018-05-31T00:49:49.608Z,93.90
2018-05-31T00:52:17.416Z,94.20
2018-05-31T00:54:45.150Z,94.30
2018-05-31T00:57:12.929Z,94.50
2018-05-31T00:59:40.644Z,94.60
2018-05-31T01:02:09.105Z,94.70
2018-05-31T01:04:36.844Z,94.70
2018-05-31T01:07:04.629Z,94.70
2018-05-31T01:09:32.323Z,94.70
2018-05-31T01:12:00.912Z,95.10
2018-05-31T01:14:28.595Z,95.10
2018-05-31T01:16:57.144Z,95.30
2018-05-31T01:19:24.892Z,95.30
2018-05-31T01:21:52.602Z,95.30
2018-05-31T01:24:20.337Z,95.30
2018-05-31T01:26:48.031Z,95.50
2018-05-31T01:29:15.762Z,95.80
2018-05-31T01:31:43.461Z,96.30
2018-05-31T01:34:11.174Z,96.10
2018-05-31T01:36:38.981Z,96.20
2018-05-31T01:39:07.462Z,96.30
2018-05-31T01:41:35.177Z,96.30
2018-05-31T01:44:03.713Z,96.60
2018-05-31T01:46:31.424Z,96.50
2018-05-31T01:48:59.965Z,96.60
2018-05-31T01:51:27.671Z,96.60
2018-05-31T01:53:55.408Z,96.50
2018-05-31T01:56:23.201Z,96.60
2018-05-31T01:58:50.959Z,96.80
2018-05-31T02:01:18.715Z,96.80
2018-05-31T02:03:46.430Z,96.80
2018-05-31T02:06:14.259Z,96.70
2018-05-31T02:08:42.017Z,96.80
2018-05-31T02:11:09.713Z,97.00
2018-05-31T02:13:37.426Z,96.90
2018-05-31T02:16:05.117Z,96.90
2018-05-31T02:18:32.888Z,98.10
2018-05-31T02:21:00.579Z,99.90
2018-05-31T02:23:28.324Z,99.90
2018-05-31T02:25:56.096Z,99.90
2018-05-31T02:28:23.874Z,99.90
2018-05-31T02:30:51.571Z,99.90
2018-05-31T02:33:20.045Z,99.90
2018-05-31T02:35:47.788Z,99.90
2018-05-31T02:38:15.552Z,99.90
2018-05-31T02:40:43.319Z,99.90
2018-05-31T02:43:11.094Z,99.90
2018-05-31T02:45:38.786Z,99.90
2018-05-31T02:48:07.333Z,99.90
2018-05-31T02:50:35.115Z,99.90
2018-05-31T02:53:02.873Z,99.90
2018-05-31T02:55:30.658Z,99.90
2018-05-31T02:57:58.425Z,99.90
2018-05-31T03:00:26.117Z,99.90
2018-05-31T03:02:53.827Z,99.90
2018-05-31T03:05:21.516Z,99.90
2018-05-31T03:07:49.287Z,99.90
2018-05-31T03:10:17.058Z,99.80
2018-05-31T03:12:44.851Z,99.60
2018-05-31T03:15:12.555Z,99.60
2018-05-31T03:17:40.261Z,99.70
2018-05-31T03:20:08.033Z,99.50
2018-05-31T03:22:35.796Z,99.60
2018-05-31T03:25:03.512Z,99.90
2018-05-31T03:27:32.001Z,99.50
2018-05-31T03:30:00.489Z,99.20
2018-05-31T03:32:28.957Z,99.10
2018-05-31T03:34:57.525Z,98.70
2018-05-31T03:37:28.077Z,99.00
2018-05-31T03:39:55.782Z,99.00
2018-05-31T03:42:23.477Z,99.00
2018-05-31T03:44:51.177Z,99.00
2018-05-31T03:47:18.963Z,99.00
2018-05-31T03:49:46.688Z,99.10
2018-05-31T03:52:14.406Z,98.90
2018-05-31T03:54:42.921Z,99.10
2018-05-31T03:57:10.616Z,99.10
2018-05-31T03:59:38.323Z,99.10
2018-05-31T04:02:06.783Z,99.30
2018-05-31T04:04:34.495Z,99.30
2018-05-31T04:07:02.300Z,99.30
2018-05-31T04:09:30.077Z,99.60
2018-05-31T04:11:57.772Z,99.60
2018-05-31T04:14:26.260Z,99.90
2018-05-31T04:16:54.748Z,99.90
2018-05-31T04:19:23.297Z,99.90
2018-05-31T04:21:50.989Z,99.90
2018-05-31T04:24:18.699Z,99.90
2018-05-31T04:26:46.503Z,99.90
2018-05-31T04:29:14.212Z,99.90
2018-05-31T04:31:42.765Z,99.90
2018-05-31T04:34:10.477Z,99.90
2018-05-31T04:36:39.000Z,99.90
2018-05-31T04:39:06.712Z,99.90
2018-05-31T04:41:34.414Z,99.90
2018-05-31T04:44:02.136Z,99.90
2018-05-31T04:46:29.897Z,99.90
2018-05-31T04:48:57.643Z,99.90
2018-05-31T04:51:25.431Z,99.90
2018-05-31T04:53:53.128Z,99.90
2018-05-31T04:56:21.585Z,99.90
2018-05-31T04:58:49.368Z,99.90
2018-05-31T05:01:17.105Z,99.70
2018-05-31T05:03:44.814Z,99.10
2018-05-31T05:06:13.367Z,98.60
2018-05-31T05:08:41.089Z,98.60
2018-05-31T05:11:08.791Z,98.10
2018-05-31T05:13:36.562Z,97.60
2018-05-31T05:16:04.263Z,97.20
2018-05-31T05:18:31.968Z,96.70
2018-05-31T05:21:00.788Z,96.30
2018-05-31T05:23:28.558Z,95.90
2018-05-31T05:25:56.323Z,95.20
2018-05-31T05:28:24.042Z,94.90
2018-05-31T05:30:52.552Z,95.10
2018-05-31T05:33:20.276Z,95.10
2018-05-31T05:35:48.041Z,95.10
2018-05-31T05:38:15.727Z,95.00
2018-05-31T05:40:44.805Z,94.80
2018-05-31T05:43:15.247Z,94.80
2018-05-31T05:45:43.044Z,94.00
2018-05-31T05:48:10.763Z,93.60
2018-05-31T05:50:38.486Z,93.00
2018-05-31T05:53:06.969Z,91.60
2018-05-31T05:55:35.454Z,91.00
2018-05-31T05:58:03.144Z,90.90
2018-05-31T06:00:30.852Z,90.70
2018-05-31T06:02:58.599Z,90.20
2018-05-31T06:05:26.327Z,89.50
2018-05-31T06:07:54.038Z,88.60
2018-05-31T06:10:21.858Z,88.30
2018-05-31T06:12:49.628Z,86.20
2018-05-31T06:15:17.353Z,87.40
2018-05-31T06:17:45.113Z,86.40
2018-05-31T06:20:12.824Z,84.90
2018-05-31T06:22:41.283Z,84.50
2018-05-31T06:25:09.008Z,84.40
2018-05-31T06:27:36.803Z,84.10
2018-05-31T06:30:04.515Z,86.70
2018-05-31T06:32:32.975Z,84.50
2018-05-31T06:35:00.723Z,84.50
2018-05-31T06:37:28.450Z,86.40
2018-05-31T06:39:56.120Z,87.40
2018-05-31T06:42:23.813Z,88.90
2018-05-31T06:44:51.573Z,89.00
2018-05-31T06:47:19.269Z,89.20
2018-05-31T06:49:46.995Z,89.50
2018-05-31T06:52:14.727Z,89.10
2018-05-31T06:54:43.247Z,90.40
2018-05-31T06:57:10.970Z,90.40
2018-05-31T06:59:38.708Z,90.90
2018-05-31T07:02:06.449Z,91.00
2018-05-31T07:04:34.240Z,91.70
2018-05-31T07:07:02.003Z,92.30
2018-05-31T07:09:29.720Z,92.90
2018-05-31T07:11:58.233Z,94.40
2018-05-31T07:14:26.025Z,94.40
2018-05-31T07:16:53.716Z,94.90
2018-05-31T07:19:22.209Z,95.40
2018-05-31T07:21:49.994Z,95.40
2018-05-31T07:24:17.824Z,95.10
2018-05-31T07:26:45.516Z,95.40
2018-05-31T07:29:13.252Z,95.50
2018-05-31T07:31:41.051Z,95.70
2018-05-31T07:34:08.760Z,95.50
2018-05-31T07:36:36.459Z,95.50
2018-05-31T07:39:04.170Z,95.80
2018-05-31T07:41:31.870Z,95.60
2018-05-31T07:43:59.574Z,95.50
2018-05-31T07:46:27.268Z,95.20
2018-05-31T07:48:55.011Z,94.80
2018-05-31T07:51:22.745Z,94.20
2018-05-31T07:53:51.279Z,92.90
2018-05-31T07:56:18.972Z,92.90
2018-05-31T07:58:47.451Z,92.30
2018-05-31T08:01:16.022Z,91.80
2018-05-31T08:03:43.805Z,91.80
2018-05-31T08:06:11.504Z,91.40
2018-05-31T08:08:39.192Z,90.10
2018-05-31T08:11:06.904Z,89.70
2018-05-31T08:13:34.610Z,89.00
2018-05-31T08:16:02.514Z,88.70
2018-05-31T08:18:30.208Z,86.80
2018-05-31T08:20:57.917Z,87.20
2018-05-31T08:23:25.706Z,87.00
2018-05-31T08:25:53.706Z,87.30
2018-05-31T08:28:21.392Z,86.90
2018-05-31T08:30:49.124Z,85.50
2018-05-31T08:33:16.909Z,84.20
2018-05-31T08:35:44.663Z,85.00
2018-05-31T08:38:12.371Z,85.30
2018-05-31T08:40:40.868Z,85.60
2018-05-31T08:43:09.352Z,86.60
2018-05-31T08:45:37.879Z,87.80
2018-05-31T08:48:05.614Z,87.70
2018-05-31T08:50:34.191Z,90.00
2018-05-31T08:53:02.013Z,90.00
2018-05-31T08:55:29.804Z,90.60
2018-05-31T08:57:57.534Z,91.00
2018-05-31T09:00:25.302Z,91.40
2018-05-31T09:02:53.151Z,92.80
2018-05-31T09:05:21.698Z,94.80
2018-05-31T09:07:50.967Z,96.40
2018-05-31T09:10:18.804Z,96.40
2018-05-31T09:12:47.329Z,97.20
2018-05-31T09:15:15.149Z,97.20
2018-05-31T09:17:42.886Z,97.10
2018-05-31T09:20:10.748Z,97.20
2018-05-31T09:22:38.485Z,96.30
2018-05-31T09:25:06.285Z,96.40
2018-05-31T09:27:33.996Z,95.00
2018-05-31T09:30:02.506Z,93.30
2018-05-31T09:32:30.984Z,93.10
2018-05-31T09:35:00.180Z,91.40
2018-05-31T09:37:27.903Z,91.30
2018-05-31T09:39:55.608Z,91.10
2018-05-31T09:42:23.305Z,90.50
2018-05-31T09:44:51.123Z,89.50
2018-05-31T09:47:18.851Z,85.80
2018-05-31T09:49:46.729Z,84.40
2018-05-31T09:52:14.492Z,82.30
2018-05-31T09:54:42.670Z,81.70
2018-05-31T09:57:10.483Z,80.30
2018-05-31T09:59:38.347Z,81.70
2018-05-31T10:02:06.231Z,80.20
2018-05-31T10:04:34.901Z,77.00
2018-05-31T10:07:02.673Z,76.90
2018-05-31T10:09:30.393Z,75.70
2018-05-31T10:11:58.861Z,74.80
2018-05-31T10:14:26.828Z,74.80
2018-05-31T10:16:54.525Z,75.00
2018-05-31T10:19:23.070Z,71.70
2018-05-31T10:21:50.838Z,71.60
2018-05-31T10:24:18.528Z,70.90
2018-05-31T10:26:47.084Z,68.20
2018-05-31T10:29:14.813Z,68.10
2018-05-31T10:31:42.522Z,66.10
2018-05-31T10:34:10.278Z,65.00
2018-05-31T10:36:38.066Z,63.80
2018-05-31T10:39:05.764Z,61.80
2018-05-31T10:41:33.562Z,60.80
2018-05-31T10:44:01.270Z,58.60
2018-05-31T10:46:29.598Z,58.20
2018-05-31T10:48:57.285Z,58.20
2018-05-31T10:51:24.984Z,56.40
2018-05-31T10:53:54.261Z,55.60
2018-05-31T10:56:22.055Z,55.50
2018-05-31T10:58:49.823Z,55.30
2018-05-31T11:01:17.680Z,54.70
2018-05-31T11:03:45.405Z,54.00
2018-05-31T11:06:13.234Z,52.20
2018-05-31T11:08:40.983Z,51.90
2018-05-31T11:11:08.667Z,51.60
2018-05-31T11:13:36.369Z,51.90
2018-05-31T11:16:04.888Z,51.30
2018-05-31T11:18:32.631Z,51.20
2018-05-31T11:21:00.355Z,50.10
2018-05-31T11:23:28.428Z,51.00
2018-05-31T11:25:56.156Z,50.60
2018-05-31T11:28:23.969Z,50.70
2018-05-31T11:30:51.777Z,50.70
2018-05-31T11:33:19.545Z,51.00
2018-05-31T11:35:48.151Z,52.10
2018-05-31T11:38:15.833Z,52.10
2018-05-31T11:40:43.843Z,51.80
2018-05-31T11:43:11.525Z,52.40
2018-05-31T11:45:39.387Z,53.10
2018-05-31T11:48:07.084Z,54.50
2018-05-31T11:50:35.734Z,55.70
2018-05-31T11:53:04.501Z,57.40
2018-05-31T11:55:32.287Z,57.40
2018-05-31T11:58:00.272Z,57.60
2018-05-31T12:00:29.633Z,59.00
2018-05-31T12:02:59.053Z,59.90
2018-05-31T12:05:26.744Z,59.90
2018-05-31T12:07:54.517Z,61.40
2018-05-31T12:10:22.220Z,62.20
2018-05-31T12:12:51.644Z,62.60
2018-05-31T12:15:19.982Z,61.80
2018-05-31T12:17:47.719Z,62.60
2018-05-31T12:20:15.508Z,62.80
2018-05-31T12:22:43.297Z,63.50
2018-05-31T12:25:11.364Z,64.40
2018-05-31T12:27:39.240Z,63.80
2018-05-31T12:30:07.051Z,64.70
2018-05-31T12:32:34.831Z,65.00
2018-05-31T12:35:02.580Z,66.60
2018-05-31T12:37:31.108Z,65.90
2018-05-31T12:39:58.955Z,65.90
2018-05-31T12:42:26.981Z,65.80
2018-05-31T12:44:54.915Z,66.00
2018-05-31T12:47:22.669Z,67.50
2018-05-31T12:49:50.706Z,68.40
2018-05-31T12:52:18.516Z,68.30
2018-05-31T12:54:46.512Z,67.70
2018-05-31T12:57:14.315Z,66.10
2018-05-31T12:59:42.286Z,65.00
2018-05-31T13:02:10.361Z,64.10
2018-05-31T13:04:38.336Z,63.00
2018-05-31T13:07:06.393Z,62.60
2018-05-31T13:09:34.393Z,62.10
2018-05-31T13:12:02.427Z,61.20
2018-05-31T13:14:30.524Z,61.20
2018-05-31T13:16:59.228Z,60.40
2018-05-31T13:19:27.089Z,62.60
2018-05-31T13:21:55.892Z,60.60
2018-05-31T13:24:23.867Z,62.00
2018-05-31T13:26:51.746Z,62.90
2018-05-31T13:29:20.456Z,64.90
2018-05-31T13:31:48.494Z,64.70
2018-05-31T13:34:16.264Z,67.20
2018-05-31T13:36:44.351Z,69.30
2018-05-31T13:39:12.205Z,69.20
2018-05-31T13:41:41.017Z,68.60
2018-05-31T13:44:10.323Z,68.40
2018-05-31T13:46:39.526Z,67.90
2018-05-31T13:49:07.502Z,68.50
2018-05-31T13:51:35.785Z,70.80
2018-05-31T13:54:03.822Z,72.40
2018-05-31T13:56:31.936Z,73.30
2018-05-31T13:58:59.772Z,74.40
2018-05-31T14:01:27.620Z,75.20
2018-05-31T14:03:55.429Z,74.80
2018-05-31T14:06:23.421Z,75.00
2018-05-31T14:08:52.114Z,77.00
2018-05-31T14:11:19.982Z,77.00
2018-05-31T14:13:47.778Z,77.80
2018-05-31T14:16:15.931Z,76.80
2018-05-31T14:18:43.850Z,75.50
2018-05-31T14:21:11.829Z,75.40
2018-05-31T14:23:39.720Z,74.70
2018-05-31T14:26:07.831Z,74.70
2018-05-31T14:28:35.735Z,75.80
2018-05-31T14:31:03.746Z,75.50
2018-05-31T14:33:31.597Z,75.20
2018-05-31T14:35:59.635Z,75.30
2018-05-31T14:38:27.699Z,75.70
2018-05-31T14:40:56.492Z,73.50
2018-05-31T14:43:24.459Z,73.40
2018-05-31T14:45:52.382Z,73.70
2018-05-31T14:48:20.521Z,73.10
2018-05-31T14:50:48.602Z,72.40
2018-05-31T14:53:17.535Z,71.30
2018-05-31T14:55:45.511Z,71.20
2018-05-31T14:58:13.532Z,71.10
2018-05-31T15:00:41.593Z,70.10
2018-05-31T15:03:09.633Z,69.20
2018-05-31T15:05:37.522Z,67.00
2018-05-31T15:08:05.495Z,67.30
2018-05-31T15:10:33.365Z,68.30
2018-05-31T15:13:01.474Z,68.30
2018-05-31T15:15:30.267Z,77.60
2018-05-31T15:17:58.206Z,77.60
2018-05-31T15:20:26.219Z,77.10
2018-05-31T15:22:54.950Z,77.70
2018-05-31T15:25:22.926Z,77.70
2018-05-31T15:27:51.672Z,83.40
2018-05-31T15:30:19.553Z,83.40
2018-05-31T15:32:48.748Z,84.70
2018-05-31T15:35:16.721Z,84.70
2018-05-31T15:37:45.516Z,87.30
2018-05-31T15:40:14.123Z,87.30
2018-05-31T15:42:42.140Z,87.30
2018-05-31T15:45:10.154Z,86.70
2018-05-31T15:47:38.126Z,86.70
2018-05-31T15:50:06.933Z,90.70
2018-05-31T15:52:35.489Z,90.40
2018-05-31T15:55:03.312Z,90.30
2018-05-31T15:57:31.299Z,91.10
2018-05-31T15:59:59.099Z,90.60
2018-05-31T16:02:26.959Z,89.40
2018-05-31T16:04:54.965Z,89.60
2018-05-31T16:07:22.726Z,89.40
2018-05-31T16:09:50.414Z,90.10
2018-05-31T16:12:18.128Z,91.00
2018-05-31T16:14:45.924Z,91.10
2018-05-31T16:17:13.736Z,91.20
2018-05-31T16:19:41.393Z,91.10
2018-05-31T16:22:09.444Z,90.80
2018-05-31T16:24:37.141Z,90.60
2018-05-31T16:27:04.865Z,87.50
2018-05-31T16:29:32.564Z,85.40
2018-05-31T16:32:00.314Z,84.90
2018-05-31T16:34:28.093Z,84.80
2018-05-31T16:36:55.817Z,82.70
2018-05-31T16:39:23.508Z,82.80
2018-05-31T16:41:51.315Z,83.90
2018-05-31T16:44:19.069Z,82.70
2018-05-31T16:46:46.830Z,82.50
2018-05-31T16:49:14.595Z,82.20
2018-05-31T16:51:42.307Z,82.10
2018-05-31T16:54:10.771Z,87.00
2018-05-31T16:56:38.525Z,87.00
2018-05-31T16:59:06.225Z,89.00
2018-05-31T17:01:34.692Z,90.90
2018-05-31T17:04:02.448Z,90.80
2018-05-31T17:06:30.168Z,90.70
2018-05-31T17:08:58.632Z,91.30
2018-05-31T17:11:27.103Z,92.00
2018-05-31T17:13:54.848Z,91.70
2018-05-31T17:16:22.563Z,91.80
2018-05-31T17:18:51.031Z,92.30
2018-05-31T17:21:19.589Z,92.40
2018-05-31T17:23:47.281Z,92.40
2018-05-31T17:26:15.036Z,92.50
2018-05-31T17:28:42.735Z,92.90
2018-05-31T17:31:11.244Z,94.10
2018-05-31T17:33:38.945Z,93.70
2018-05-31T17:36:06.665Z,94.00
2018-05-31T17:38:35.205Z,94.60
2018-05-31T17:41:02.920Z,94.60
2018-05-31T17:43:31.377Z,95.00
2018-05-31T17:45:59.066Z,95.00
2018-05-31T17:48:27.602Z,95.50
2018-05-31T17:50:55.319Z,95.50
2018-05-31T17:53:23.807Z,95.90
2018-05-31T17:55:52.266Z,96.00
2018-05-31T17:58:20.011Z,96.00
2018-05-31T18:00:48.209Z,96.00
2018-05-31T18:03:17.192Z,95.80
2018-05-31T18:05:44.867Z,95.80
2018-05-31T18:08:12.583Z,96.00
2018-05-31T18:10:40.276Z,95.90
2018-05-31T18:13:07.981Z,96.00
2018-05-31T18:15:35.675Z,96.00
2018-05-31T18:18:04.205Z,95.80
2018-05-31T18:20:31.897Z,95.80
2018-05-31T18:22:59.607Z,95.80
2018-05-31T18:25:27.301Z,95.90
2018-05-31T18:27:55.062Z,95.90
2018-05-31T18:30:22.854Z,95.80
2018-05-31T18:32:50.566Z,95.80
2018-05-31T18:35:19.102Z,95.80
2018-05-31T18:37:46.884Z,95.80
2018-05-31T18:40:14.637Z,96.00
2018-05-31T18:42:42.417Z,96.10
2018-05-31T18:45:10.109Z,96.40
2018-05-31T18:47:37.818Z,96.50
2018-05-31T18:50:05.504Z,96.90
2018-05-31T18:52:33.235Z,96.70
2018-05-31T18:55:00.959Z,96.70
